AirNav   Air Wisconsin Up To $57,000 Bonus
 
 357 users online  

9II4 Cruzan Field Airport
Arcadia, Indiana, USA

GOING TO ARCADIA?


FAA INFORMATION EFFECTIVE 05 NOVEMBER 2020

Location

FAA Identifier: 9II4
Lat/Long: 40-10-21.0000N 085-56-41.0000W
40-10.350000N 085-56.683333W
40.1725000,-85.9447222
(estimated)
Elevation: 845 ft. / 258 m (estimated)
Variation: 03W (1990)
From city: 4 miles E of ARCADIA, IN
Time zone: UTC -5 (UTC -4 during Daylight Saving Time)
Zip code: 46034

Airport Operations

Airport use: Private use. Permission required prior to landing
Activation date: 11/1992
Control tower: no
ARTCC: CHICAGO CENTER
FSS: TERRE HAUTE FLIGHT SERVICE STATION
Attendance: UNATNDD
Wind indicator: yes
Segmented circle: no

Airport Communications

WX AWOS-3 at UMP (15 nm S): 119.375 (317-842-3911)
WX AWOS-3 at AID (16 nm E): 128.55 (765-442-1245)
WX AWOS-3PT at TYQ (16 nm SW): 120.725 (317-769-3154)
WX AWOS-3 at MQJ (20 nm S): 124.175 (317-335-3037)

Nearby radio navigation aids

VOR radial/distance  VOR name  Freq  Var
OKKr171/21.9KOKOMO VORTAC113.5005W
MZZr215/22.8MARION VOR/DME108.6003W
MIEr264/25.5MUNCIE VOR/DME114.4003W
VHPr041/29.0BRICKYARD VORTAC116.3001E
GUSr164/29.9GRISSOM VORTAC108.4502W
SHBr349/32.9SHELBYVILLE VOR/DME112.0001E

 
NDB name  Hdg/Dist  Freq  Var  ID
METROPOLITAN022/14.933803WUMP ..- -- .--.
NEW CASTLE307/33.738506WUWL ..- .-- .-..

Airport Services

Runway Information

Runway 9/27

Dimensions: 3300 x 70 ft. / 1006 x 21 m
Surface: turf
RUNWAY 9  RUNWAY 27
Latitude: 40-10.350000N
Longitude: 085-56.683333W
Elevation: 845.0 ft.
Traffic pattern: leftleft
Displaced threshold: no560 ft.
Obstructions: none35 ft. bldg, 140 ft. from runway

Airport Ownership and Management from official FAA records

Ownership: Privately-owned
Owner: ROBERT E. CRUZAN II
26410 S.R. 213
ARCADIA, IN 46030
Phone 317-439-0800
Manager: ROBERT E. CRUZAN II
26410 S.R. 213
ARCADIA, IN 46030
Phone 317-439-0800

Airport Operational Statistics

Aircraft based on the field: 4
Single engine airplanes: 1
Ultralights: 3
    

Additional Remarks

FOR CD CTC CHICAGO ARTCC AT 630-906-8921.

Instrument Procedures

There are no published instrument procedures at 9II4.

Some nearby airports with instrument procedures:

5I4 - Sheridan Airport (12 nm W)
KUMP - Indianapolis Metropolitan Airport (15 nm S)
KAID - Anderson Municipal Airport-Darlington Field (16 nm E)
KTYQ - Indianapolis Executive Airport (16 nm SW)
KMQJ - Indianapolis Regional Airport (20 nm S)
 
Loc | Ops | Rwys | IFR | FBO | Links
Com | Nav | Svcs | Stats | Notes
Area around 9II4 (Cruzan Field Airport)
 
Road maps at: MapQuest Bing Google
 
Aerial photo
No photo
 
Sectional chart

 
Airport distance calculator
Flying to Cruzan Field Airport? Find the distance to fly.

From to 9II4

Sunrise and sunset
Times for 01-Dec-2020
 Local
(UTC-5)
 Zulu
(UTC)
Morning civil twilight07:1912:19
Sunrise07:4912:49
Sunset17:1822:18
Evening civil twilight17:4822:48

Current date and time
Zulu (UTC)  01-Dec-2020 09:36:14
Local (UTC-5)  01-Dec-2020 04:36:14
 
METAR
KAID 
15nm E 
010915Z AUTO 30016G23KT 10SM OVC017 M03/M05 A2989 RMK AO2 T10271051
KTYQ 
16nm SW 
010915Z AUTO 29011G18KT 10SM BKN022 BKN026 OVC041 M03/M06 A2994 RMK AO2 T10301056
KMQJ 
20nm S 
010915Z AUTO 29016G22KT 10SM BKN021 OVC042 M03/M03 A2992 RMK AO1
KOKK 
22nm N 
010856Z AUTO 30017KT 10SM OVC019 M03/M04 A2990 RMK AO2 PK WND 29026/0836 SLP137 T10281044 53007 FZRANO
KMZZ 
23nm NE 
010915Z AUTO 30017G26KT 10SM OVC016 M02/M04 A2989 RMK AO2 T10221042
KMIE 
25nm E 
010913Z AUTO 30013KT 7SM -FZRA OVC013 M01/M04 A2987 RMK AO2 FZRAB07 P0000 I1000 T10111044
KEYE 
26nm SW 
010909Z AUTO 29014KT 10SM SCT023 OVC045 M02/M06 A2994 RMK AO2 T10171061
KFKR 
29nm W 
010915Z AUTO 31017G20KT 10SM OVC024 M01/M06 A2996 RMK AO2 T10111056
KGUS 
29nm N 
010856Z AUTO 28014G21KT 10SM OVC018 M02/M02 A2989 RMK AO2 SLP134 T10231024 53007 FZRANO $
TAF
KGUS 
29nm N 
302332Z 3023/0203 31012G18KT 9000 -SN OVC008 510013 QNH2978INS TEMPO 0100/0104 31015G25KT OVC007 BECMG 0102/0104 32015G25KT 4800 -SN OVC015 510013 QNH2980INS BECMG 0108/0109 29018KT 4800 -SN OVC008 510014 QNH2989INS BECMG 0115/0117 30015G25KT 8000 -RASN BKN015 BKN030 QNH2990INS BECMG 0118/0120 30020G25KT 9999 SKC 510023 QNH2994INS BECMG 0123/0124 27009KT 9999 SKC 510023 QNH3001INS TX00/3023Z TNM04/0111Z LAST NO AMDS AFT 0104 NEXT 0113
KIND 
31nm SW 
010816Z 0108/0212 30016G23KT P6SM BKN022 OVC040 FM011200 29012KT P6SM BKN050 FM011500 29012KT P6SM SCT090 FM021100 27006KT P6SM FEW250
NOTAMs
Click for the latest NOTAMs
NOTAMs are issued by the DoD/FAA and will open in a separate window not controlled by AirNav.

 

 
 

Would you like to see your business listed on this page?

 If your business provides an interesting product or service to pilots, flight crews, aircraft, or users of the Cruzan Field Airport, you should consider listing it here.  To start the listing process, click on the button below
 
Add a business
 

Other Pages about Cruzan Field Airport

Update a link
 
Copyright © AirNav, LLC. All rights reserved. Privacy Policy  Contact